createdAt,value
2022-10-15T00:00:41.488Z,23.52
2022-10-15T00:04:44.856Z,22.10
2022-10-15T00:08:50.282Z,24.75
2022-10-15T00:12:53.484Z,23.75
2022-10-15T00:16:56.875Z,26.50
2022-10-15T00:21:00.039Z,23.58
2022-10-15T00:25:05.106Z,26.40
2022-10-15T00:29:08.457Z,20.73
2022-10-15T00:33:11.564Z,25.20
2022-10-15T00:37:14.971Z,20.13
2022-10-15T00:41:22.155Z,23.75
2022-10-15T00:45:25.401Z,25.77
2022-10-15T00:49:34.659Z,25.25
2022-10-15T00:53:37.716Z,26.95
2022-10-15T00:57:45.985Z,28.17
2022-10-15T01:01:49.330Z,30.40
2022-10-15T01:05:54.538Z,30.40
2022-10-15T01:09:57.942Z,26.92
2022-10-15T01:14:13.658Z,29.90
2022-10-15T01:18:21.680Z,27.15
2022-10-15T01:22:38.451Z,20.42
2022-10-15T01:27:09.757Z,23.88
2022-10-15T01:31:22.669Z,27.75
2022-10-15T01:35:38.672Z,26.30
2022-10-15T01:39:46.915Z,23.48
2022-10-15T01:43:58.269Z,22.20
2022-10-15T01:48:34.189Z,24.02
2022-10-15T01:52:41.639Z,22.98
2022-10-15T01:56:49.812Z,22.90
2022-10-15T02:00:58.382Z,26.00
2022-10-15T02:05:06.179Z,22.83
2022-10-15T02:09:17.741Z,23.60
2022-10-15T02:13:26.918Z,27.35
2022-10-15T02:17:37.078Z,28.45
2022-10-15T02:21:48.151Z,26.63
2022-10-15T02:25:53.635Z,26.75
2022-10-15T02:29:59.334Z,25.38
2022-10-15T02:34:06.957Z,31.70
2022-10-15T02:38:18.440Z,28.08
2022-10-15T02:42:22.347Z,26.75
2022-10-15T02:46:25.645Z,29.88
2022-10-15T02:50:28.991Z,27.95
2022-10-15T02:54:33.471Z,27.70
2022-10-15T02:58:37.020Z,24.40
2022-10-15T03:02:42.662Z,26.52
2022-10-15T03:06:46.018Z,26.52
2022-10-15T03:10:51.871Z,28.55
2022-10-15T03:14:54.990Z,27.67
2022-10-15T03:18:58.702Z,25.20
2022-10-15T03:23:02.157Z,27.65
2022-10-15T03:27:08.730Z,30.02
2022-10-15T03:31:13.613Z,29.73
2022-10-15T03:35:17.248Z,33.35
2022-10-15T03:39:20.338Z,25.45
2022-10-15T03:43:26.622Z,27.13
2022-10-15T03:47:29.669Z,25.92
2022-10-15T03:51:33.754Z,27.98
2022-10-15T03:55:42.567Z,26.55
2022-10-15T03:59:47.486Z,25.90
2022-10-15T04:03:53.308Z,30.88
2022-10-15T04:07:58.861Z,25.48
2022-10-15T04:12:04.147Z,30.38
2022-10-15T04:16:08.865Z,26.73
2022-10-15T04:20:12.787Z,25.92
2022-10-15T04:24:19.592Z,24.45
2022-10-15T04:28:22.932Z,26.08
2022-10-15T04:32:27.611Z,24.98
2022-10-15T04:36:32.326Z,26.17
2022-10-15T04:40:41.221Z,26.70
2022-10-15T04:44:44.296Z,25.73
2022-10-15T04:48:50.505Z,23.50
2022-10-15T04:52:54.433Z,26.23
2022-10-15T04:56:59.128Z,28.25
2022-10-15T05:01:03.875Z,24.00
2022-10-15T05:05:12.644Z,32.83
2022-10-15T05:09:25.651Z,27.58
2022-10-15T05:13:29.452Z,27.40
2022-10-15T05:17:33.048Z,27.05
2022-10-15T05:21:38.362Z,27.65
2022-10-15T05:25:53.133Z,25.50
2022-10-15T05:30:00.482Z,26.52
2022-10-15T05:34:14.971Z,27.30
2022-10-15T05:38:28.656Z,25.00
2022-10-15T05:42:34.680Z,27.00
2022-10-15T05:46:37.960Z,24.25
2022-10-15T05:50:41.135Z,25.40
2022-10-15T05:54:49.188Z,22.52
2022-10-15T05:58:52.549Z,29.25
2022-10-15T06:02:58.140Z,28.45
2022-10-15T06:07:01.952Z,24.77
2022-10-15T06:11:09.316Z,24.08
2022-10-15T06:15:12.856Z,26.15
2022-10-15T06:19:16.226Z,24.98
2022-10-15T06:23:19.406Z,26.88
2022-10-15T06:27:24.065Z,27.77
2022-10-15T06:31:27.501Z,25.40
2022-10-15T06:35:33.423Z,27.35
2022-10-15T06:39:36.676Z,26.45
2022-10-15T06:43:41.306Z,28.42
2022-10-15T06:47:45.584Z,25.60
2022-10-15T06:51:48.824Z,25.60
2022-10-15T06:55:51.857Z,29.52
2022-10-15T06:59:56.278Z,29.20
2022-10-15T07:03:59.642Z,26.17
2022-10-15T07:08:02.742Z,24.80
2022-10-15T07:12:07.158Z,29.27
2022-10-15T07:16:13.245Z,25.60
2022-10-15T07:20:20.232Z,26.33
2022-10-15T07:24:26.357Z,28.77
2022-10-15T07:28:29.504Z,25.52
2022-10-15T07:32:34.059Z,26.50
2022-10-15T07:36:37.047Z,26.85
2022-10-15T07:40:40.253Z,28.63
2022-10-15T07:44:43.467Z,28.30
2022-10-15T07:48:47.887Z,27.05
2022-10-15T07:52:51.120Z,28.38
2022-10-15T07:56:54.326Z,27.85
2022-10-15T08:01:00.272Z,28.55
2022-10-15T08:05:06.403Z,23.83
2022-10-15T08:09:09.773Z,24.00
2022-10-15T08:13:12.961Z,24.98
2022-10-15T08:17:16.059Z,25.88
2022-10-15T08:21:20.652Z,27.33
2022-10-15T08:25:23.728Z,24.65
2022-10-15T08:29:26.968Z,23.40
2022-10-15T08:33:30.003Z,24.17
2022-10-15T08:37:34.453Z,25.35
2022-10-15T08:41:41.605Z,24.73
2022-10-15T08:45:48.890Z,26.13
2022-10-15T08:49:54.661Z,26.08
2022-10-15T08:54:04.687Z,23.38
2022-10-15T08:58:16.963Z,24.70
2022-10-15T09:02:26.960Z,25.77
2022-10-15T09:06:35.852Z,25.50
2022-10-15T09:10:47.672Z,24.20
2022-10-15T09:14:55.696Z,25.63
2022-10-15T09:19:03.944Z,23.33
2022-10-15T09:23:17.470Z,26.05
2022-10-15T09:27:31.564Z,23.75
2022-10-15T09:31:42.432Z,22.85
2022-10-15T09:35:52.317Z,22.15
2022-10-15T09:40:10.084Z,21.60
2022-10-15T09:44:17.414Z,24.75
2022-10-15T09:48:24.850Z,23.85
2022-10-15T09:52:46.529Z,24.60
2022-10-15T09:56:53.769Z,22.27
2022-10-15T10:01:03.172Z,22.30
2022-10-15T10:05:28.194Z,23.77
2022-10-15T10:09:34.785Z,22.15
2022-10-15T10:13:43.398Z,23.80
2022-10-15T10:17:53.335Z,22.52
2022-10-15T10:22:07.920Z,23.42
2022-10-15T10:26:12.624Z,21.95
2022-10-15T10:30:16.322Z,20.35
2022-10-15T10:34:28.877Z,18.42
2022-10-15T10:38:34.555Z,21.63
2022-10-15T10:42:38.329Z,22.52
2022-10-15T10:46:43.661Z,20.42
2022-10-15T10:50:48.383Z,20.50
2022-10-15T10:54:59.219Z,19.02
2022-10-15T10:59:11.043Z,20.92
2022-10-15T11:03:23.904Z,19.77
2022-10-15T11:07:42.645Z,20.45
2022-10-15T11:11:55.711Z,19.15
2022-10-15T11:16:03.791Z,22.17
2022-10-15T11:20:33.272Z,22.50
2022-10-15T11:25:06.123Z,20.95
2022-10-15T11:29:15.546Z,20.73
2022-10-15T11:33:36.983Z,21.90
2022-10-15T11:37:52.342Z,19.48
2022-10-15T11:42:07.471Z,24.08
2022-10-15T11:46:19.594Z,20.95
2022-10-15T11:50:30.211Z,20.85
2022-10-15T11:54:38.899Z,19.25
2022-10-15T11:58:49.932Z,18.95
2022-10-15T12:02:55.904Z,17.00
2022-10-15T12:07:02.127Z,16.83
2022-10-15T12:11:16.652Z,15.20
2022-10-15T12:15:31.268Z,14.93
2022-10-15T12:19:41.985Z,19.17
2022-10-15T12:23:44.964Z,19.15
2022-10-15T12:28:00.951Z,17.20
2022-10-15T12:32:05.616Z,17.80
2022-10-15T12:36:22.221Z,16.55
2022-10-15T12:40:29.424Z,19.20
2022-10-15T12:44:34.815Z,18.52
2022-10-15T12:48:41.991Z,21.30
2022-10-15T12:53:00.519Z,19.80
2022-10-15T12:57:06.437Z,19.42
2022-10-15T13:01:29.450Z,19.48
2022-10-15T13:05:38.080Z,21.70
2022-10-15T13:09:42.954Z,22.77
2022-10-15T13:13:51.981Z,19.02
2022-10-15T13:17:56.443Z,18.48
2022-10-15T13:22:03.579Z,16.88
2022-10-15T13:26:25.644Z,18.45
2022-10-15T13:30:28.694Z,19.77
2022-10-15T13:34:34.616Z,18.95
2022-10-15T13:38:44.007Z,18.58
2022-10-15T13:43:00.301Z,21.30
2022-10-15T13:47:03.512Z,19.10
2022-10-15T13:51:08.042Z,18.48
2022-10-15T13:55:24.708Z,18.40
2022-10-15T13:59:29.944Z,21.13
2022-10-15T14:03:35.908Z,21.25
2022-10-15T14:07:39.112Z,20.55
2022-10-15T14:11:43.659Z,19.75
2022-10-15T14:15:58.620Z,20.58
2022-10-15T14:20:26.386Z,20.58
2022-10-15T14:24:35.258Z,20.30
2022-10-15T14:28:41.554Z,19.20
2022-10-15T14:32:48.040Z,20.17
2022-10-15T14:36:51.530Z,19.08
2022-10-15T14:41:06.385Z,21.15
2022-10-15T14:45:22.056Z,19.35
2022-10-15T14:49:27.908Z,19.23
2022-10-15T14:53:36.791Z,20.20
2022-10-15T14:57:42.715Z,21.85
2022-10-15T15:01:57.317Z,22.42
2022-10-15T15:06:03.212Z,21.85
2022-10-15T15:10:08.842Z,22.13
2022-10-15T15:14:23.413Z,23.40
2022-10-15T15:18:28.388Z,19.50
2022-10-15T15:22:34.068Z,21.85
2022-10-15T15:26:37.082Z,23.33
2022-10-15T15:30:42.413Z,24.95
2022-10-15T15:34:47.108Z,22.77
2022-10-15T15:38:50.172Z,22.15
2022-10-15T15:42:53.514Z,21.35
2022-10-15T15:46:56.512Z,24.08
2022-10-15T15:51:03.858Z,21.95
2022-10-15T15:55:08.567Z,23.60
2022-10-15T15:59:11.794Z,25.38
2022-10-15T16:03:15.514Z,23.42
2022-10-15T16:07:19.887Z,24.90
2022-10-15T16:11:23.071Z,23.55
2022-10-15T16:15:26.096Z,25.00
2022-10-15T16:19:29.106Z,25.80
2022-10-15T16:23:33.487Z,25.60
2022-10-15T16:27:36.498Z,24.55
2022-10-15T16:31:39.688Z,23.42
2022-10-15T16:35:42.786Z,19.65
2022-10-15T16:39:47.373Z,23.38
2022-10-15T16:43:50.905Z,20.58
2022-10-15T16:47:53.889Z,18.90
2022-10-15T16:51:57.296Z,19.67
2022-10-15T16:56:03.110Z,19.33
2022-10-15T17:00:06.950Z,19.42
2022-10-15T17:04:10.259Z,20.77
2022-10-15T17:08:14.710Z,19.65
2022-10-15T17:12:19.423Z,21.05
2022-10-15T17:16:25.488Z,17.23
2022-10-15T17:20:28.546Z,17.52
2022-10-15T17:24:31.800Z,19.35
2022-10-15T17:28:37.033Z,20.15
2022-10-15T17:32:40.255Z,16.45
2022-10-15T17:36:47.205Z,15.82
2022-10-15T17:41:10.509Z,17.08
2022-10-15T17:45:15.093Z,17.40
2022-10-15T17:49:18.961Z,17.10
2022-10-15T17:53:22.042Z,17.00
2022-10-15T17:57:25.469Z,16.77
2022-10-15T18:01:56.721Z,17.02
2022-10-15T18:05:54.836Z,18.27
2022-10-15T18:09:57.800Z,16.17
2022-10-15T18:14:00.880Z,14.88
2022-10-15T18:18:05.336Z,15.75
2022-10-15T18:22:08.361Z,17.60
2022-10-15T18:26:18.601Z,16.88
2022-10-15T18:30:22.951Z,16.83
2022-10-15T18:34:28.394Z,15.55
2022-10-15T18:38:31.569Z,16.13
2022-10-15T18:42:34.602Z,14.95
2022-10-15T18:46:42.263Z,17.58
2022-10-15T18:54:54.883Z,16.02
2022-10-15T18:58:58.098Z,15.57
2022-10-15T19:03:01.282Z,18.08
2022-10-15T19:07:05.851Z,16.55
2022-10-15T19:11:09.388Z,15.07
2022-10-15T19:15:12.737Z,17.90
2022-10-15T19:19:20.036Z,18.92
2022-10-15T19:23:25.126Z,15.55
2022-10-15T19:27:28.450Z,15.88
2022-10-15T19:31:34.586Z,17.52
2022-10-15T19:35:41.261Z,16.27
2022-10-15T19:39:48.422Z,17.80
2022-10-15T19:43:51.419Z,17.83
2022-10-15T19:47:55.605Z,19.42
2022-10-15T19:52:01.228Z,16.30
2022-10-15T19:56:08.121Z,19.73
2022-10-15T20:00:13.061Z,21.05
2022-10-15T20:04:16.051Z,20.83
2022-10-15T20:08:19.510Z,16.80
2022-10-15T20:12:23.902Z,16.25
2022-10-15T20:16:30.045Z,15.57
2022-10-15T20:20:36.223Z,18.52
2022-10-15T20:24:39.242Z,16.13
2022-10-15T20:28:45.691Z,18.33
2022-10-15T20:32:49.296Z,16.52
2022-10-15T20:36:53.099Z,18.30
2022-10-15T20:40:56.168Z,15.45
2022-10-15T20:45:00.709Z,18.45
2022-10-15T20:49:09.157Z,18.52
2022-10-15T20:53:12.776Z,16.25
2022-10-15T20:57:16.066Z,17.95
2022-10-15T21:01:20.900Z,18.45
2022-10-15T21:05:24.241Z,22.52
2022-10-15T21:09:27.270Z,18.63
2022-10-15T21:13:30.476Z,18.25
2022-10-15T21:17:35.071Z,20.10
2022-10-15T21:21:39.225Z,18.15
2022-10-15T21:25:42.342Z,16.70
2022-10-15T21:29:46.615Z,16.50
2022-10-15T21:33:51.582Z,17.58
2022-10-15T21:37:54.753Z,19.05
2022-10-15T21:41:57.771Z,18.63
2022-10-15T21:46:05.792Z,18.48
2022-10-15T21:50:10.669Z,20.65
2022-10-15T21:54:13.918Z,18.88
2022-10-15T21:58:17.528Z,18.90
2022-10-15T22:02:20.752Z,18.27
2022-10-15T22:06:25.366Z,20.40
2022-10-15T22:10:28.381Z,20.10
2022-10-15T22:14:31.377Z,18.17
2022-10-15T22:18:34.795Z,18.80
2022-10-15T22:22:39.215Z,16.98
2022-10-15T22:26:44.341Z,20.58
2022-10-15T22:30:47.460Z,18.98
2022-10-15T22:34:50.467Z,18.90
2022-10-15T22:38:57.161Z,18.77
2022-10-15T22:43:00.403Z,19.25
2022-10-15T22:47:03.601Z,17.88
2022-10-15T22:51:08.920Z,18.33
2022-10-15T22:55:13.291Z,17.50
2022-10-15T22:59:16.964Z,17.27
2022-10-15T23:03:21.108Z,18.38
2022-10-15T23:07:24.307Z,19.95
2022-10-15T23:11:32.038Z,18.95
2022-10-15T23:15:35.268Z,18.83
2022-10-15T23:19:38.511Z,18.50
2022-10-15T23:23:41.544Z,18.88
2022-10-15T23:27:46.351Z,19.58
2022-10-15T23:31:50.380Z,18.25
2022-10-15T23:36:01.985Z,17.17
2022-10-15T23:40:05.606Z,18.02
2022-10-15T23:44:10.135Z,20.75
2022-10-15T23:48:13.164Z,17.30
2022-10-15T23:52:16.143Z,14.90
2022-10-15T23:56:19.991Z,14.73
